Alvada, OH (44802)

4:05 PM EDT on September 04, 2015 (GMT -0400)
Arcadia Ohio Williesweather | | Change Station
CLOSE
Current Station
Personal Weather Station
Location: ARCADIA, OH
Elevation: 820 ft
Nearby Weather Stations

Elev 820 ft 41.12 °N, 83.52 °W | Updated 3 seconds ago

Mostly Cloudy
Mostly Cloudy
75.1 °F
Feels Like 77 °F
N
6.0
Wind Variable Wind from West
Gusts 13.0 mph

Today
High -- | Low -- °F
--% Chance of Precip.
Yesterday
High -- | Low -- °F
Precip. -- in
7:03 AM 8:01 PM
Waning Gibbous, 56% visible
Pressure 29.99 in
Visibility 10.0 miles
Clouds Few 3900 ft
Few 4700 ft
Scattered Clouds 5500 ft
Heat Index 77 °F
Dew Point 64 °F
Humidity 68%
Rainfall 0.00 in
Snow Depth Not available.
UV 5 out of 12
Pollen 6.60 out of 12
Air Quality Not available.
Flu Activity Not available.
METAR KFDY 041953Z AUTO 23009KT 10SM FEW039 FEW047 SCT055 22/17 A3001 RMK AO2 LTG DSNT ALQDS RAB16E49 TSB06E33 SLP155 P0000 T02170172
Pressure 29.99 in
Visibility 10.0 miles
Clouds Few 3900 ft
Few 4700 ft
Scattered Clouds 5500 ft
Heat Index 77 °F
Dew Point 64 °F
Humidity 68%
Rainfall 0.00 in
Snow Depth Not available.
UV 5 out of 12
Pollen 6.60 out of 12
Air Quality Not available.
Flu Activity Not available.
METAR KFDY 041953Z AUTO 23009KT 10SM FEW039 FEW047 SCT055 22/17 A3001 RMK AO2 LTG DSNT ALQDS RAB16E49 TSB06E33 SLP155 P0000 T02170172

10-Day Weather Forecast

×

Almanac

Astronomy

Sep. 04, 2015 Rise Set
Actual Time
Civil Twilight
Nautical Twilight
Astronomical Twilight
Moon
Length of Visible Light
Length of Day
Tomorrow will be .
, % of the Moon is Illuminated

Today's Extremes

State Highs State Lows

Community

WunderPhotos

Upload Photos

1,852,272 photos uploaded!

WunderBlogs® & News

Nearby

Air Quality

  Air Quality AQ Index Pollutant
Not available.

Snow Depth

Station Depth Elevation

Earthquake Activity

City Distance Mag. Time & Date
Minimum magnitude displayed is 2.5.

Coastal Water Temperatures

Place Temperature

Stations

Nearby Weather Stations

Station Location Temp. Windchill Dew Point Humidity Wind Precip. Elev Updated Type